< < Back
Terminal Aerodrome Forecast


Current Version              Previous Versions:   1  2  3  4  5  6  7  8  9  

Terminal Aerodrome Forecast

445
FTUS44 KBMX 252332
TAFBHM
TAF
KBHM 252332Z 2600/2624 18006KT P6SM SCT250
     FM261300 16008KT P6SM SCT250=

Latest METAR

627
SAUS70 KWBC 260600 RRB
MTRBHM
METAR KBHM 260553Z 14003KT 10SM CLR 24/16 A3014 RMK AO2 SLP198 T02390156
10289 20217 403170183 56019


USA.gov is the U.S. government's official web portal to all federal, state and local government web resources and services.